Time;durP1;ratioP1;P1;durP2;ratioP2;P2;SDS_P1;SDS_P2;PMS_P1;PMS_P2;Temp;Humidity;BMP_temperature;BMP_pressure;BME280_temperature;BME280_humidity;BME280_pressure;Samples;Min_cycle;Max_cycle;Signal;HPM_P1;HPM_P2
2022/11/20 00:00:44;;;;;;;16.40;14.40;;;4.60;99.90;;;;;;5096197;27;20195;-35
2022/11/20 00:03:10;;;;;;;18.60;15.27;;;5.00;99.90;;;;;;5122369;27;20188;-34
2022/11/20 00:05:35;;;;;;;18.30;15.30;;;4.90;99.90;;;;;;5090327;28;20220;-34
2022/11/20 00:08:01;;;;;;;18.53;15.40;;;4.70;99.90;;;;;;5090386;28;20184;-35
2022/11/20 00:10:27;;;;;;;19.37;15.60;;;4.40;99.90;;;;;;5089465;28;20273;-35
2022/11/20 00:12:52;;;;;;;17.50;15.60;;;4.40;99.90;;;;;;5121994;27;20535;-34
2022/11/20 00:15:18;;;;;;;18.90;15.63;;;4.60;99.90;;;;;;5088862;28;20681;-34
2022/11/20 00:17:43;;;;;;;20.50;16.43;;;4.30;99.90;;;;;;5088585;28;20253;-34
2022/11/20 00:20:10;;;;;;;16.47;14.67;;;4.40;99.90;;;;;;5088211;28;20224;-35
2022/11/20 00:22:35;;;;;;;17.23;14.00;;;4.40;99.90;;;;;;5088311;28;20192;-34
2022/11/20 00:25:01;;;;;;;15.40;13.77;;;4.50;99.90;;;;;;5103927;27;20507;-34
2022/11/20 00:27:27;;;;;;;17.90;14.90;;;4.30;99.90;;;;;;5086951;28;20810;-34
2022/11/20 00:29:52;;;;;;;19.17;15.30;;;4.20;99.90;;;;;;5088211;28;20562;-35
2022/11/20 00:32:18;;;;;;;17.73;14.30;;;4.20;99.90;;;;;;5088568;28;20200;-35
2022/11/20 00:34:43;;;;;;;16.60;14.43;;;4.20;99.90;;;;;;5086539;28;20198;-34
2022/11/20 00:37:09;;;;;;;19.53;14.33;;;4.20;99.90;;;;;;5088918;28;20196;-34
2022/11/20 00:39:35;;;;;;;16.47;13.30;;;4.30;99.90;;;;;;5087633;28;20900;-34
2022/11/20 00:42:00;;;;;;;16.33;13.93;;;4.20;99.90;;;;;;5097438;28;20558;-34
2022/11/20 00:44:26;;;;;;;17.77;14.57;;;4.60;99.90;;;;;;5108159;28;20730;-34
2022/11/20 00:46:52;;;;;;;16.07;12.60;;;4.30;99.90;;;;;;5108894;28;20641;-34
2022/11/20 00:49:17;;;;;;;14.53;12.30;;;4.30;99.90;;;;;;5106957;28;20183;-34
2022/11/20 00:51:43;;;;;;;18.73;13.10;;;4.10;99.90;;;;;;5095686;28;20597;-34
2022/11/20 00:54:08;;;;;;;17.70;14.00;;;4.20;99.90;;;;;;5087909;28;20757;-34
2022/11/20 00:56:34;;;;;;;16.90;12.67;;;4.20;99.90;;;;;;5087790;28;20317;-35
2022/11/20 00:59:01;;;;;;;17.00;13.77;;;4.20;99.90;;;;;;5087771;28;20411;-34
2022/11/20 01:01:29;;;;;;;16.90;13.53;;;4.20;99.90;;;;;;5088192;28;20362;-34
2022/11/20 01:03:56;;;;;;;17.80;13.57;;;4.20;99.90;;;;;;5088048;28;20416;-34
2022/11/20 01:06:28;;;;;;;18.87;14.33;;;4.10;99.90;;;;;;5087776;28;20431;-34
2022/11/20 01:08:56;;;;;;;16.33;13.60;;;4.10;99.90;;;;;;5088629;28;20418;-34
2022/11/20 01:11:28;;;;;;;17.30;14.43;;;4.10;99.90;;;;;;5089278;28;20431;-34
2022/11/20 01:13:55;;;;;;;17.73;14.73;;;4.00;99.90;;;;;;5089576;28;20427;-34
2022/11/20 01:16:27;;;;;;;19.57;14.80;;;4.00;99.90;;;;;;5089076;28;21040;-34
2022/11/20 01:18:56;;;;;;;16.00;14.13;;;3.70;99.90;;;;;;5088452;28;20434;-34
2022/11/20 01:21:27;;;;;;;18.47;13.83;;;3.70;99.90;;;;;;5087538;28;20438;-34
2022/11/20 01:23:53;;;;;;;18.93;14.70;;;3.70;99.90;;;;;;5095700;28;20421;-34
2022/11/20 01:26:21;;;;;;;20.00;15.03;;;3.70;99.90;;;;;;5128723;27;20965;-34
2022/11/20 01:28:48;;;;;;;19.47;14.43;;;3.60;99.90;;;;;;5128688;27;20471;-34
2022/11/20 01:31:19;;;;;;;16.37;14.40;;;3.40;99.90;;;;;;5128887;27;20417;-34
2022/11/20 01:33:47;;;;;;;19.00;14.63;;;3.40;99.90;;;;;;5127432;27;20405;-34
2022/11/20 01:36:14;;;;;;;19.40;14.33;;;3.10;99.90;;;;;;5128561;27;20454;-34
2022/11/20 01:38:40;;;;;;;16.17;14.40;;;3.30;99.90;;;;;;5127042;27;20408;-34
2022/11/20 01:41:07;;;;;;;17.93;14.17;;;3.20;99.90;;;;;;5128890;27;20861;-34
2022/11/20 01:43:33;;;;;;;17.00;14.20;;;3.30;99.90;;;;;;5128194;27;20421;-34
2022/11/20 01:46:03;;;;;;;17.40;14.93;;;3.20;99.90;;;;;;5129491;27;20520;-35
2022/11/20 01:48:53;;;;;;;19.20;15.00;;;3.20;99.90;;;;;;5132345;27;20181;-34
2022/11/20 01:51:25;;;;;;;18.50;14.70;;;2.90;99.90;;;;;;5117156;27;20418;-34
2022/11/20 01:53:54;;;;;;;16.43;13.37;;;3.00;99.90;;;;;;5111530;28;20401;-34
2022/11/20 01:56:19;;;;;;;19.97;13.90;;;3.30;99.90;;;;;;5111828;28;20414;-34
2022/11/20 01:58:51;;;;;;;17.23;14.07;;;3.20;99.90;;;;;;5111718;28;20474;-34
2022/11/20 02:01:17;;;;;;;18.70;14.37;;;3.00;99.90;;;;;;5111405;28;20418;-34
2022/11/20 02:03:44;;;;;;;20.63;15.60;;;2.90;99.90;;;;;;5111312;28;20413;-34
2022/11/20 02:06:18;;;;;;;18.87;15.43;;;3.00;99.90;;;;;;5111333;27;20465;-35
2022/11/20 02:08:44;;;;;;;18.90;14.87;;;3.00;99.90;;;;;;5110021;28;20497;-35
2022/11/20 02:11:10;;;;;;;18.23;14.90;;;3.10;99.90;;;;;;5111408;28;20840;-34
2022/11/20 02:13:44;;;;;;;17.40;14.03;;;2.90;99.90;;;;;;5111915;27;20176;-34
2022/11/20 02:16:12;;;;;;;20.03;15.47;;;2.90;99.90;;;;;;5112977;28;20178;-35
2022/11/20 02:18:38;;;;;;;21.10;15.13;;;2.90;99.90;;;;;;5112693;28;20822;-34
2022/11/20 02:21:16;;;;;;;20.80;15.13;;;3.10;99.90;;;;;;5112585;28;20449;-34
2022/11/20 02:24:06;;;;;;;20.43;14.47;;;2.90;99.90;;;;;;5114509;27;20433;-35
2022/11/20 02:27:00;;;;;;;20.90;15.03;;;3.10;99.90;;;;;;5131445;27;21105;-34
2022/11/20 02:29:52;;;;;;;18.13;13.80;;;2.90;99.90;;;;;;5131489;27;20925;-34
2022/11/20 02:32:32;;;;;;;21.53;15.60;;;2.90;99.90;;;;;;5131417;27;20451;-34
2022/11/20 02:34:58;;;;;;;18.70;14.93;;;2.90;99.90;;;;;;5131014;27;20633;-34
2022/11/20 02:37:32;;;;;;;19.97;15.40;;;2.90;99.90;;;;;;5131561;27;20412;-35
2022/11/20 02:39:57;;;;;;;20.00;14.87;;;2.80;99.90;;;;;;5131241;27;20174;-35
2022/11/20 02:42:23;;;;;;;20.17;15.43;;;2.80;99.90;;;;;;5131159;27;20747;-34
2022/11/20 02:44:49;;;;;;;19.03;15.17;;;3.00;99.90;;;;;;5131177;27;20203;-34
2022/11/20 02:47:14;;;;;;;18.13;15.20;;;3.10;99.90;;;;;;5131065;27;20641;-34
2022/11/20 02:49:40;;;;;;;21.30;14.90;;;3.10;99.90;;;;;;5129798;27;20187;-35
2022/11/20 02:52:05;;;;;;;17.20;13.30;;;2.90;99.90;;;;;;5109388;28;20207;-34
2022/11/20 02:54:31;;;;;;;19.13;14.70;;;3.20;99.90;;;;;;5110310;28;20248;-34
2022/11/20 02:56:57;;;;;;;17.93;13.90;;;2.90;99.90;;;;;;5109380;28;20690;-34
2022/11/20 02:59:22;;;;;;;20.47;14.53;;;3.10;99.90;;;;;;5109222;28;20414;-34
2022/11/20 03:01:48;;;;;;;16.87;12.53;;;2.90;99.90;;;;;;5110426;28;20184;-34
2022/11/20 03:04:14;;;;;;;16.90;13.10;;;3.20;99.90;;;;;;5109996;28;20184;-35
2022/11/20 03:06:39;;;;;;;17.63;12.60;;;3.10;99.90;;;;;;5110326;28;20200;-34
2022/11/20 03:09:05;;;;;;;17.97;12.93;;;3.10;99.90;;;;;;5109886;28;20759;-34
2022/11/20 03:11:31;;;;;;;16.20;12.53;;;3.10;99.90;;;;;;5109400;28;20172;-34
2022/11/20 03:13:57;;;;;;;15.37;12.27;;;3.40;99.90;;;;;;5110333;28;20421;-34
2022/11/20 03:16:23;;;;;;;15.33;12.20;;;3.10;99.90;;;;;;5110551;28;20187;-34
2022/11/20 03:18:51;;;;;;;17.23;12.47;;;3.20;99.90;;;;;;5110222;28;20236;-34
2022/11/20 03:21:17;;;;;;;18.57;13.20;;;3.20;99.90;;;;;;5111847;28;20413;-34
2022/11/20 03:23:43;;;;;;;19.40;14.27;;;3.20;99.90;;;;;;5114125;27;20972;-34
2022/11/20 03:26:14;;;;;;;14.80;12.67;;;3.30;99.90;;;;;;5131188;27;20215;-34
2022/11/20 03:28:41;;;;;;;16.40;12.00;;;3.10;99.90;;;;;;5131047;27;20198;-34
2022/11/20 03:31:13;;;;;;;14.47;11.90;;;3.40;99.90;;;;;;5129027;27;20409;-34
2022/11/20 03:33:40;;;;;;;16.10;13.20;;;3.50;99.90;;;;;;5129226;27;20491;-34
2022/11/20 03:36:10;;;;;;;17.67;12.97;;;3.40;99.90;;;;;;5130326;27;20802;-34
2022/11/20 03:38:37;;;;;;;15.10;11.50;;;3.40;99.90;;;;;;5130399;27;21119;-34
2022/11/20 03:41:09;;;;;;;15.47;12.47;;;3.30;99.90;;;;;;5130248;27;20481;-34
2022/11/20 03:43:34;;;;;;;16.00;12.43;;;3.30;99.90;;;;;;5129925;27;20807;-34
2022/11/20 03:46:00;;;;;;;15.60;12.00;;;3.40;99.90;;;;;;5130075;27;20460;-34
2022/11/20 03:48:26;;;;;;;14.80;11.23;;;3.50;99.90;;;;;;5128927;27;20217;-34
2022/11/20 03:50:53;;;;;;;13.10;10.27;;;3.40;99.90;;;;;;5118334;27;20430;-34
2022/11/20 03:53:19;;;;;;;9.60;7.20;;;3.70;99.90;;;;;;5109262;28;20417;-34
2022/11/20 03:55:50;;;;;;;8.47;6.60;;;3.70;99.90;;;;;;5109400;28;20426;-34
2022/11/20 03:58:15;;;;;;;10.50;7.93;;;3.80;99.90;;;;;;5109289;28;20421;-34
2022/11/20 04:00:41;;;;;;;9.70;7.53;;;3.70;99.90;;;;;;5107793;28;20769;-34
2022/11/20 04:03:07;;;;;;;11.70;9.70;;;3.90;99.90;;;;;;5108959;28;20535;-35
2022/11/20 04:05:33;;;;;;;10.70;8.50;;;3.80;99.90;;;;;;5109224;28;20218;-34
2022/11/20 04:07:59;;;;;;;13.00;9.23;;;3.80;99.90;;;;;;5109104;28;20447;-35
2022/11/20 04:10:25;;;;;;;10.90;8.03;;;3.60;99.90;;;;;;5108643;28;20410;-34
2022/11/20 04:12:51;;;;;;;12.90;9.03;;;3.80;99.90;;;;;;5105793;28;20469;-34
2022/11/20 04:15:16;;;;;;;12.00;8.10;;;3.80;99.90;;;;;;5109130;28;20195;-34
2022/11/20 04:17:42;;;;;;;11.53;9.07;;;3.70;99.90;;;;;;5107478;28;20248;-34
2022/11/20 04:20:08;;;;;;;14.47;10.10;;;3.70;99.90;;;;;;5109085;28;20237;-34
2022/11/20 04:22:34;;;;;;;12.93;9.60;;;3.70;99.90;;;;;;5108946;28;20180;-34
2022/11/20 04:24:59;;;;;;;15.20;10.63;;;3.80;99.90;;;;;;5102199;27;20484;-34
2022/11/20 04:27:25;;;;;;;12.17;10.10;;;3.80;99.90;;;;;;5095680;28;20227;-34
2022/11/20 04:29:50;;;;;;;12.90;9.77;;;3.90;99.90;;;;;;5089664;28;20732;-34
2022/11/20 04:32:16;;;;;;;12.97;9.90;;;4.00;99.90;;;;;;5104633;28;20271;-34
2022/11/20 04:34:42;;;;;;;12.20;8.97;;;3.90;99.90;;;;;;5103143;28;20210;-34
2022/11/20 04:37:07;;;;;;;11.83;9.07;;;3.80;99.90;;;;;;5108943;28;20183;-34
2022/11/20 04:39:33;;;;;;;14.87;9.20;;;3.90;99.90;;;;;;5108057;28;20245;-34
2022/11/20 04:44:43;;;;;;;13.10;10.30;;;4.10;99.90;;;;;;5098170;28;20215;-34
2022/11/20 04:47:09;;;;;;;15.00;10.97;;;3.90;99.90;;;;;;5108981;28;20933;-34
2022/11/20 04:49:34;;;;;;;15.73;11.53;;;4.00;99.90;;;;;;5105603;28;20183;-34
2022/11/20 04:52:00;;;;;;;14.20;11.20;;;3.80;99.90;;;;;;5108412;28;20259;-34
2022/11/20 04:54:25;;;;;;;18.10;11.10;;;3.70;99.90;;;;;;5108505;28;20187;-34
2022/11/20 04:56:51;;;;;;;13.00;10.13;;;3.70;99.90;;;;;;5108478;28;20211;-34
2022/11/20 04:59:17;;;;;;;16.10;11.43;;;3.90;99.90;;;;;;5108268;28;20671;-34
2022/11/20 05:01:42;;;;;;;13.93;11.13;;;3.70;99.90;;;;;;5108597;28;20542;-34
2022/11/20 05:04:08;;;;;;;15.13;11.43;;;3.60;99.90;;;;;;5106965;28;20192;-35
2022/11/20 05:06:34;;;;;;;12.03;9.80;;;3.40;99.90;;;;;;5108333;28;20209;-34
2022/11/20 05:09:00;;;;;;;14.20;10.57;;;3.40;99.90;;;;;;5106836;28;20180;-35
2022/11/20 05:11:28;;;;;;;14.50;11.07;;;3.40;99.90;;;;;;5108594;28;20350;-35
2022/11/20 05:13:55;;;;;;;12.23;9.93;;;3.60;99.90;;;;;;5104835;28;20456;-34
2022/11/20 05:16:23;;;;;;;16.10;10.53;;;3.60;99.90;;;;;;5107117;28;20425;-34
2022/11/20 05:18:50;;;;;;;13.23;10.13;;;3.50;99.90;;;;;;5108222;28;20707;-35
2022/11/20 05:21:16;;;;;;;13.33;10.50;;;3.40;99.90;;;;;;5109160;28;20425;-34
2022/11/20 05:23:43;;;;;;;13.13;9.87;;;3.40;99.90;;;;;;5114737;27;20528;-35
2022/11/20 05:26:21;;;;;;;13.50;10.00;;;3.40;99.90;;;;;;5132943;27;20464;-34
2022/11/20 05:28:48;;;;;;;11.77;9.47;;;3.50;99.90;;;;;;5123621;27;20986;-34
2022/11/20 05:31:16;;;;;;;15.20;10.30;;;3.30;99.90;;;;;;5113938;28;20473;-35
2022/11/20 05:33:43;;;;;;;13.63;10.87;;;3.40;99.90;;;;;;5111875;28;20424;-34
2022/11/20 05:36:09;;;;;;;13.10;10.47;;;3.30;99.90;;;;;;5113886;28;20417;-34
2022/11/20 05:38:35;;;;;;;16.13;11.60;;;3.50;99.90;;;;;;5113322;28;20446;-34
2022/11/20 05:41:09;;;;;;;13.63;10.93;;;3.30;99.90;;;;;;5113852;28;20501;-34
2022/11/20 05:43:37;;;;;;;14.43;10.03;;;3.40;99.90;;;;;;5112208;28;20194;-34
2022/11/20 05:46:04;;;;;;;13.40;10.10;;;3.60;99.90;;;;;;5113515;28;20472;-34
2022/11/20 05:48:30;;;;;;;13.57;10.40;;;3.40;99.90;;;;;;5113047;28;21086;-34
2022/11/20 05:51:01;;;;;;;17.60;11.00;;;3.60;99.90;;;;;;5113564;28;21135;-34
2022/11/20 05:53:27;;;;;;;16.23;12.03;;;3.50;99.90;;;;;;5113342;28;20500;-34
2022/11/20 05:56:05;;;;;;;12.30;9.60;;;3.50;99.90;;;;;;5113387;28;20943;-34
2022/11/20 05:58:32;;;;;;;12.93;10.87;;;3.30;99.90;;;;;;5110640;28;20310;-34
2022/11/20 06:01:06;;;;;;;11.07;9.43;;;3.40;99.90;;;;;;5113023;28;20430;-34
2022/11/20 06:03:32;;;;;;;14.20;9.97;;;3.40;99.90;;;;;;5111910;28;20416;-34
2022/11/20 06:06:02;;;;;;;13.90;10.83;;;3.30;99.90;;;;;;5113043;28;20852;-34
2022/11/20 06:08:28;;;;;;;13.53;9.13;;;3.10;99.90;;;;;;5113093;28;20425;-34
2022/11/20 06:10:54;;;;;;;17.00;11.20;;;3.30;99.90;;;;;;5113091;28;20432;-34
2022/11/20 06:13:20;;;;;;;12.40;10.00;;;3.40;99.90;;;;;;5108821;28;20991;-34
2022/11/20 06:15:50;;;;;;;15.37;11.40;;;3.40;99.90;;;;;;5110069;28;20195;-34
2022/11/20 06:18:16;;;;;;;13.30;10.20;;;3.20;99.90;;;;;;5113328;28;20189;-34
2022/11/20 06:20:41;;;;;;;15.43;10.37;;;3.20;99.90;;;;;;5112570;28;21122;-34
2022/11/20 06:23:07;;;;;;;13.93;10.80;;;3.20;99.90;;;;;;5111491;28;20172;-34
2022/11/20 06:25:32;;;;;;;12.23;10.07;;;3.30;99.90;;;;;;5131049;27;20195;-34
2022/11/20 06:27:58;;;;;;;11.60;10.30;;;3.20;99.90;;;;;;5133090;27;20168;-34
2022/11/20 06:30:24;;;;;;;15.60;10.63;;;3.20;99.90;;;;;;5120747;27;20649;-34
2022/11/20 06:32:49;;;;;;;12.50;10.73;;;3.30;99.90;;;;;;5109719;28;20680;-34
2022/11/20 06:35:15;;;;;;;12.57;10.87;;;3.40;99.90;;;;;;5112839;28;20188;-34
2022/11/20 06:37:41;;;;;;;16.40;12.30;;;3.20;99.90;;;;;;5112701;28;20213;-34
2022/11/20 06:40:07;;;;;;;13.90;11.63;;;3.30;99.90;;;;;;5111189;28;20188;-34
2022/11/20 06:42:32;;;;;;;15.20;11.20;;;3.30;99.90;;;;;;5106541;28;20188;-34
2022/11/20 06:44:58;;;;;;;14.43;10.80;;;3.30;99.90;;;;;;5112334;28;20465;-34
2022/11/20 06:47:24;;;;;;;14.13;11.50;;;3.10;99.90;;;;;;5112433;28;20626;-34
2022/11/20 06:49:49;;;;;;;12.97;11.40;;;3.00;99.90;;;;;;5112154;28;20206;-35
2022/11/20 06:52:15;;;;;;;14.70;10.80;;;2.90;99.90;;;;;;5112449;28;20184;-34
2022/11/20 06:54:40;;;;;;;13.53;10.43;;;3.00;99.90;;;;;;5112061;28;20229;-34
2022/11/20 06:57:06;;;;;;;15.47;12.10;;;3.10;99.90;;;;;;5112144;28;20183;-34
2022/11/20 06:59:32;;;;;;;14.97;10.87;;;2.90;99.90;;;;;;5107899;28;20666;-34
2022/11/20 07:01:57;;;;;;;13.67;11.13;;;2.90;99.90;;;;;;5112186;28;20213;-34
2022/11/20 07:04:23;;;;;;;16.93;11.97;;;3.10;99.90;;;;;;5111792;28;20225;-34
2022/11/20 07:06:49;;;;;;;13.00;10.00;;;3.20;99.90;;;;;;5112117;28;20272;-34
2022/11/20 07:09:14;;;;;;;12.90;10.33;;;3.00;99.90;;;;;;5108555;27;20435;-34
2022/11/20 07:11:40;;;;;;;16.83;11.50;;;2.90;99.90;;;;;;5109261;28;20725;-34
2022/11/20 07:14:06;;;;;;;14.43;11.70;;;2.80;99.90;;;;;;5111709;28;20221;-34
2022/11/20 07:16:31;;;;;;;17.10;12.47;;;2.80;99.90;;;;;;5110668;28;20234;-34
2022/11/20 07:18:57;;;;;;;13.90;11.27;;;2.80;99.90;;;;;;5110563;28;20598;-34
2022/11/20 07:21:23;;;;;;;14.97;11.70;;;2.70;99.90;;;;;;5110504;28;20764;-34
2022/11/20 07:23:48;;;;;;;13.40;11.53;;;2.70;99.90;;;;;;5109677;27;20320;-35
2022/11/20 07:26:14;;;;;;;17.00;12.87;;;2.80;99.90;;;;;;5110994;28;20204;-34
2022/11/20 07:28:39;;;;;;;16.00;12.80;;;2.60;99.90;;;;;;5111327;28;20180;-35
2022/11/20 07:31:07;;;;;;;16.80;12.50;;;2.70;99.90;;;;;;5110094;28;20183;-34
2022/11/20 07:33:32;;;;;;;16.13;12.90;;;2.60;99.90;;;;;;5106485;28;20176;-34
2022/11/20 07:35:59;;;;;;;15.83;12.37;;;2.60;99.90;;;;;;5111438;28;20417;-34
2022/11/20 07:38:25;;;;;;;16.83;12.87;;;2.50;99.90;;;;;;5111227;27;20321;-34
2022/11/20 07:40:57;;;;;;;16.33;12.30;;;2.50;99.90;;;;;;5111205;28;20489;-34
2022/11/20 07:43:23;;;;;;;16.50;12.90;;;2.80;99.90;;;;;;5111044;28;20932;-34
2022/11/20 07:45:50;;;;;;;18.60;12.77;;;2.60;99.90;;;;;;5109951;28;20479;-34
2022/11/20 07:48:16;;;;;;;17.83;12.70;;;2.70;99.90;;;;;;5111242;28;20518;-35
2022/11/20 07:50:42;;;;;;;15.17;11.93;;;2.80;99.90;;;;;;5110950;28;20441;-34
2022/11/20 07:53:07;;;;;;;17.13;13.30;;;2.80;99.90;;;;;;5109511;28;20554;-35
2022/11/20 07:55:33;;;;;;;14.90;12.23;;;2.70;99.90;;;;;;5110995;28;20229;-34
2022/11/20 07:57:59;;;;;;;15.70;13.20;;;2.70;99.90;;;;;;5109641;28;20184;-34
2022/11/20 08:00:26;;;;;;;15.83;12.93;;;2.60;99.90;;;;;;5107721;28;20642;-34
2022/11/20 08:02:51;;;;;;;18.60;13.00;;;2.50;99.90;;;;;;5107225;28;20444;-35
2022/11/20 08:05:17;;;;;;;19.57;14.30;;;2.70;99.90;;;;;;5110447;28;20461;-34
2022/11/20 08:07:44;;;;;;;18.70;14.47;;;2.70;99.90;;;;;;5110917;28;20192;-35
2022/11/20 08:10:13;;;;;;;16.60;13.30;;;2.70;99.90;;;;;;5109144;28;20467;-34
2022/11/20 08:15:35;;;;;;;18.90;15.30;;;2.90;99.90;;;;;;5109661;28;20422;-34
2022/11/20 08:18:12;;;;;;;18.27;13.37;;;3.10;99.90;;;;;;5108363;28;20468;-34
2022/11/20 08:20:38;;;;;;;19.60;14.43;;;3.20;99.90;;;;;;5109359;28;20421;-34
2022/11/20 08:23:06;;;;;;;18.50;14.77;;;3.50;99.90;;;;;;5110317;28;20801;-34
2022/11/20 08:25:33;;;;;;;18.63;14.30;;;3.90;99.90;;;;;;5121410;27;20469;-35
2022/11/20 08:28:00;;;;;;;19.63;15.23;;;4.20;99.90;;;;;;5095552;28;20426;-34
2022/11/20 08:30:27;;;;;;;17.93;14.63;;;4.40;99.90;;;;;;5103795;28;20425;-35
2022/11/20 08:32:53;;;;;;;20.50;15.93;;;4.60;99.90;;;;;;5104317;28;20445;-34
2022/11/20 08:35:20;;;;;;;19.07;14.27;;;5.00;99.90;;;;;;5099543;28;20546;-34
2022/11/20 08:37:46;;;;;;;17.70;13.87;;;5.30;99.90;;;;;;5110125;27;20883;-34
2022/11/20 08:40:12;;;;;;;17.07;14.83;;;5.60;99.90;;;;;;5082958;28;20462;-34
2022/11/20 08:42:49;;;;;;;18.37;14.10;;;5.70;99.90;;;;;;5101876;27;20463;-34
2022/11/20 08:45:15;;;;;;;17.80;14.07;;;5.70;99.90;;;;;;5105069;28;20215;-34
2022/11/20 08:47:41;;;;;;;15.53;13.40;;;5.90;99.90;;;;;;5106544;27;20495;-34
2022/11/20 08:50:08;;;;;;;17.33;14.40;;;6.10;99.90;;;;;;5098322;28;20544;-34
2022/11/20 08:52:33;;;;;;;18.13;12.73;;;6.40;99.90;;;;;;5102574;28;20963;-34
2022/11/20 08:54:59;;;;;;;14.47;12.00;;;6.50;99.90;;;;;;5107394;27;20512;-35
2022/11/20 08:57:24;;;;;;;17.00;13.47;;;6.70;99.90;;;;;;5107014;27;20215;-34
2022/11/20 08:59:50;;;;;;;18.70;14.00;;;6.90;99.90;;;;;;5103758;27;20379;-35
2022/11/20 09:02:15;;;;;;;16.83;14.13;;;7.10;99.90;;;;;;5107434;27;20229;-35
2022/11/20 09:04:41;;;;;;;15.90;13.13;;;7.10;99.90;;;;;;5102231;27;20224;-35
2022/11/20 09:07:07;;;;;;;15.10;13.50;;;7.20;99.90;;;;;;5106865;27;20232;-35
2022/11/20 09:09:33;;;;;;;16.53;14.17;;;7.30;99.90;;;;;;5106166;27;20270;-35
2022/11/20 09:11:58;;;;;;;18.97;14.90;;;7.40;99.90;;;;;;5107395;27;20978;-34
2022/11/20 09:14:29;;;;;;;20.17;14.53;;;7.40;99.90;;;;;;5103566;27;20755;-34
2022/11/20 09:16:57;;;;;;;19.10;14.40;;;7.60;99.90;;;;;;5107924;27;20223;-34
2022/11/20 09:19:26;;;;;;;23.77;15.60;;;7.60;99.90;;;;;;5105242;27;22330;-34
2022/11/20 09:21:52;;;;;;;20.33;14.80;;;7.70;99.90;;;;;;5116625;27;20453;-34
2022/11/20 09:24:18;;;;;;;19.87;14.53;;;7.40;99.90;;;;;;5105231;27;20462;-34
2022/11/20 09:26:44;;;;;;;20.50;14.87;;;7.10;99.90;;;;;;5111707;27;20448;-34
2022/11/20 09:29:10;;;;;;;18.80;14.67;;;7.10;99.90;;;;;;5103179;27;20454;-34
2022/11/20 09:31:36;;;;;;;19.20;15.10;;;7.50;99.90;;;;;;5110760;27;20259;-34
2022/11/20 09:34:02;;;;;;;19.80;15.17;;;7.60;99.90;;;;;;5105475;27;20453;-34
2022/11/20 09:36:28;;;;;;;18.80;14.27;;;7.50;99.90;;;;;;5114636;27;20295;-35
2022/11/20 09:38:53;;;;;;;17.63;14.33;;;7.60;99.90;;;;;;5101304;27;20310;-34
2022/11/20 09:41:52;;;;;;;16.13;12.80;;;7.40;99.90;;;;;;5098498;27;20440;-34
2022/11/20 09:44:43;;;;;;;19.87;14.47;;;7.10;99.90;;;;;;5105832;27;20903;-34
2022/11/20 09:47:43;;;;;;;15.10;12.87;;;7.10;99.90;;;;;;5104073;27;20499;-34
2022/11/20 09:50:32;;;;;;;18.27;13.23;;;7.00;99.90;;;;;;5102445;28;20461;-35
2022/11/20 09:53:10;;;;;;;18.47;12.90;;;6.70;99.90;;;;;;5087313;27;20802;-34
2022/11/20 09:55:37;;;;;;;16.17;13.00;;;6.60;99.90;;;;;;5105779;28;20476;-34
2022/11/20 09:58:07;;;;;;;17.10;12.97;;;6.50;99.90;;;;;;5101792;27;20881;-34
2022/11/20 10:00:35;;;;;;;15.77;12.60;;;6.50;99.90;;;;;;5101213;27;20603;-34
2022/11/20 10:03:16;;;;;;;13.40;10.43;;;6.30;99.90;;;;;;5103415;27;20835;-34
2022/11/20 10:05:47;;;;;;;12.13;10.00;;;6.30;99.90;;;;;;5097703;27;21125;-35
2022/11/20 10:08:44;;;;;;;12.83;10.27;;;6.20;99.90;;;;;;5097342;27;20450;-34
2022/11/20 10:11:46;;;;;;;14.60;11.77;;;6.30;99.90;;;;;;5109304;27;20477;-34
2022/11/20 10:14:30;;;;;;;13.80;11.50;;;6.10;99.90;;;;;;5097932;27;20458;-34
2022/11/20 10:17:11;;;;;;;27.80;19.27;;;6.00;99.90;;;;;;5106715;28;20405;-34
2022/11/20 10:19:59;;;;;;;15.57;11.67;;;5.80;99.90;;;;;;5091250;28;20433;-33
2022/11/20 10:22:44;;;;;;;16.30;11.17;;;6.00;99.90;;;;;;5096494;28;20425;-34
2022/11/20 10:25:22;;;;;;;14.60;11.93;;;6.10;99.90;;;;;;5096474;27;20493;-34
2022/11/20 10:28:22;;;;;;;29.27;22.50;;;6.10;99.90;;;;;;5092107;28;21003;-35
2022/11/20 10:31:00;;;;;;;14.20;11.93;;;6.10;99.90;;;;;;5092209;28;20423;-35
2022/11/20 10:33:29;;;;;;;16.77;13.33;;;5.90;99.90;;;;;;5097632;28;20436;-35
2022/11/20 10:36:07;;;;;;;15.67;11.90;;;6.10;99.90;;;;;;5107984;28;20490;-35
2022/11/20 10:38:58;;;;;;;13.30;11.23;;;6.00;99.90;;;;;;5105477;28;20926;-35
2022/11/20 10:41:29;;;;;;;14.03;11.50;;;6.20;99.90;;;;;;5092379;28;20433;-35
2022/11/20 10:45:00;;;;;;;14.30;11.53;;;6.20;99.90;;;;;;5091677;28;20437;-35
2022/11/20 10:47:15;;;;;;;14.40;10.87;;;6.10;99.90;;;;;;5091900;28;20435;-35
2022/11/20 10:49:43;;;;;;;13.90;10.83;;;6.20;99.90;;;;;;5090336;28;20426;-34
2022/11/20 10:52:36;;;;;;;13.73;10.90;;;6.40;99.90;;;;;;5096370;28;20426;-35
2022/11/20 10:55:30;;;;;;;13.63;9.60;;;6.30;99.90;;;;;;5104499;28;20437;-34
2022/11/20 10:58:10;;;;;;;13.10;9.00;;;6.50;99.90;;;;;;5103252;28;21142;-34
2022/11/20 11:00:36;;;;;;;11.40;8.70;;;6.20;99.90;;;;;;5102217;28;20474;-35
2022/11/20 11:03:02;;;;;;;12.03;9.30;;;6.20;99.90;;;;;;5103685;28;20899;-35
2022/11/20 11:05:45;;;;;;;13.03;8.50;;;6.50;99.90;;;;;;5102283;28;20234;-35
2022/11/20 11:08:17;;;;;;;10.50;7.63;;;6.50;99.90;;;;;;5089758;28;20507;-35
2022/11/20 11:10:57;;;;;;;12.00;9.00;;;6.20;99.90;;;;;;5090177;28;20450;-34
2022/11/20 11:13:28;;;;;;;11.60;8.57;;;6.20;99.90;;;;;;5089864;28;20418;-34
2022/11/20 11:15:54;;;;;;;11.40;8.20;;;6.10;99.90;;;;;;5091301;28;20509;-34
2022/11/20 11:18:29;;;;;;;11.10;8.53;;;6.30;99.90;;;;;;5090918;28;20437;-34
2022/11/20 11:20:57;;;;;;;11.50;8.23;;;6.20;99.90;;;;;;5089907;28;20551;-35
2022/11/20 11:23:33;;;;;;;9.80;7.07;;;6.10;99.90;;;;;;5090721;28;20512;-34
2022/11/20 11:26:01;;;;;;;11.30;7.63;;;6.40;99.90;;;;;;5091029;28;20467;-34
2022/11/20 11:28:28;;;;;;;11.70;8.00;;;6.20;99.90;;;;;;5099292;28;20415;-34
2022/11/20 11:30:55;;;;;;;10.03;8.10;;;6.40;99.90;;;;;;5096474;28;20472;-34
2022/11/20 11:33:26;;;;;;;12.43;8.27;;;6.30;99.90;;;;;;5091408;28;20479;-35
2022/11/20 11:35:53;;;;;;;12.40;8.50;;;6.50;99.90;;;;;;5096294;28;20445;-34
2022/11/20 11:38:31;;;;;;;12.43;8.17;;;6.30;99.90;;;;;;5109758;28;20417;-34
2022/11/20 11:40:57;;;;;;;11.37;8.47;;;6.30;99.90;;;;;;5093061;28;20436;-34
2022/11/20 11:46:19;;;;;;;10.10;7.77;;;6.10;99.90;;;;;;5111183;28;20468;-34
2022/11/20 11:49:04;;;;;;;11.93;8.20;;;6.10;99.90;;;;;;5110353;28;20408;-34
2022/11/20 11:51:47;;;;;;;10.30;8.47;;;6.30;99.90;;;;;;5111173;28;20409;-34
2022/11/20 11:54:27;;;;;;;12.87;9.17;;;6.20;99.90;;;;;;5109642;28;20841;-34
2022/11/20 11:56:53;;;;;;;12.47;8.10;;;6.30;99.90;;;;;;5109993;28;20421;-34
2022/11/20 11:59:45;;;;;;;12.03;7.83;;;6.30;99.90;;;;;;5110225;28;20419;-34
2022/11/20 12:02:49;;;;;;;11.97;8.10;;;6.50;99.90;;;;;;5110379;27;20501;-34
2022/11/20 12:05:29;;;;;;;11.20;8.60;;;6.60;99.90;;;;;;5110388;28;20460;-34
2022/11/20 12:08:11;;;;;;;11.77;8.47;;;6.50;99.90;;;;;;5110532;28;20786;-34
2022/11/20 12:11:04;;;;;;;12.00;8.53;;;6.60;99.90;;;;;;5109833;28;20432;-34
2022/11/20 12:13:48;;;;;;;12.53;8.10;;;6.30;99.90;;;;;;5109200;28;20722;-34
2022/11/20 12:16:17;;;;;;;13.83;9.20;;;6.20;99.90;;;;;;5109039;28;20421;-35
2022/11/20 12:18:44;;;;;;;12.93;9.00;;;6.20;99.90;;;;;;5108565;28;20531;-34
2022/11/20 12:21:41;;;;;;;12.07;8.37;;;6.30;99.90;;;;;;5109024;28;20418;-34
2022/11/20 12:24:37;;;;;;;10.80;8.33;;;6.40;99.90;;;;;;5114711;27;20785;-34
2022/11/20 12:27:24;;;;;;;10.40;7.93;;;6.10;99.90;;;;;;5089638;27;20447;-34
2022/11/20 12:30:17;;;;;;;11.40;7.63;;;6.30;99.90;;;;;;5086917;28;20426;-35
2022/11/20 12:32:45;;;;;;;13.20;9.17;;;6.30;99.90;;;;;;5083603;28;21011;-35
2022/11/20 12:35:41;;;;;;;10.60;8.07;;;6.40;99.90;;;;;;5100205;28;20415;-35
2022/11/20 12:38:37;;;;;;;11.10;7.97;;;6.30;99.90;;;;;;5105930;28;20424;-35
2022/11/20 12:47:29;;;;;;;12.23;9.53;;;6.40;99.90;;;;;;5099340;28;20504;-35
2022/11/20 12:50:00;;;;;;;12.83;8.77;;;6.30;99.90;;;;;;5102467;28;20421;-37
2022/11/20 12:52:40;;;;;;;12.97;9.57;;;6.30;99.90;;;;;;5098144;28;20510;-35
2022/11/20 12:55:25;;;;;;;15.00;9.60;;;6.50;99.90;;;;;;5096034;28;20429;-35
2022/11/20 12:58:17;;;;;;;14.37;9.87;;;6.30;99.90;;;;;;5101998;28;20422;-35
2022/11/20 13:00:58;;;;;;;12.07;8.90;;;6.50;99.90;;;;;;5087788;28;20426;-35
2022/11/20 13:03:36;;;;;;;11.20;8.63;;;6.10;99.90;;;;;;5094649;28;20475;-35
2022/11/20 13:06:09;;;;;;;11.57;8.60;;;6.20;99.90;;;;;;5097832;28;21312;-35
2022/11/20 13:08:40;;;;;;;13.00;9.30;;;6.30;99.90;;;;;;5093797;28;20931;-35